Vorkuta, Russia
Current Conditions -  °F | °C
As of 2:00 PM on Sunday 23 Nov 2014 (Local Time) from USHH Reporting Station
Clear Clear  
Wind Chill: -29°   Ceiling: Unl
Heat Index: -17°   Visibility: 6mi
Dew Point: -24°   Wind: 4mph
Humidity: 70%   Direction: 260°W
Pressure: 30.18"   Gusts: NA
Location:  67.5°N, 64°E
Report Text: USHH 231100Z 26002MPS CAVOK M27/M31 Q1022 NOSIG RMK QFE76324////60
Loading
Personal Weather Stations






























Interactive Weather Map New forecast layout! Learn more

10-Day Weather Forecast

Advertisements
Track Severe Weather on mobile